Terminal Aerodrome Forecast
Issued by NWS

Home | Current Version | Previous Version | Text Only | Print | Product List | Glossary On
Versions: 1 2 3 4 5 6 7 8 9 10 11 12 13 14 15 16 17
000
FTUS43 KICT 272000 AAA
TAFHUT
TAF AMD
KHUT 272035Z 2721/2818 35014KT P6SM BKN200
     FM280100 35011KT P6SM BKN120
     FM280800 34005KT P6SM BKN120=

USA.gov is the U.S. government's official web portal to all federal, state and local government web resources and services.